createdAt,value
2022-12-31T00:00:08.472Z,0.00
2022-12-31T00:01:08.421Z,0.00
2022-12-31T00:02:08.511Z,0.00
2022-12-31T00:03:08.536Z,0.00
2022-12-31T00:04:08.413Z,0.00
2022-12-31T00:05:08.377Z,0.00
2022-12-31T00:06:08.369Z,0.00
2022-12-31T00:07:08.384Z,0.00
2022-12-31T00:08:08.355Z,0.00
2022-12-31T00:09:08.355Z,0.00
2022-12-31T00:10:08.343Z,0.00
2022-12-31T00:11:08.323Z,0.00
2022-12-31T00:12:08.296Z,0.00
2022-12-31T00:13:08.292Z,0.00
2022-12-31T00:14:08.295Z,0.00
2022-12-31T00:15:08.300Z,0.00
2022-12-31T00:16:11.993Z,0.00
2022-12-31T00:17:08.296Z,0.00
2022-12-31T00:18:08.235Z,0.00
2022-12-31T00:19:08.248Z,0.00
2022-12-31T00:20:08.204Z,0.00
2022-12-31T00:21:08.206Z,0.00
2022-12-31T00:22:08.240Z,0.00
2022-12-31T00:23:08.181Z,0.00
2022-12-31T00:24:08.199Z,0.00
2022-12-31T00:25:08.155Z,0.00
2022-12-31T00:26:08.153Z,0.00
2022-12-31T00:27:08.129Z,0.00
2022-12-31T00:28:08.131Z,0.00
2022-12-31T00:29:08.123Z,0.00
2022-12-31T00:30:08.102Z,0.00
2022-12-31T00:31:08.297Z,0.00
2022-12-31T00:32:08.085Z,0.00
2022-12-31T00:33:08.076Z,0.00
2022-12-31T00:34:08.082Z,0.00
2022-12-31T00:35:08.079Z,0.00
2022-12-31T00:36:08.036Z,0.00
2022-12-31T00:37:08.027Z,0.00
2022-12-31T00:38:08.023Z,0.00
2022-12-31T00:39:08.055Z,0.00
2022-12-31T00:40:07.989Z,0.00
2022-12-31T00:41:07.984Z,0.00
2022-12-31T00:42:07.987Z,0.00
2022-12-31T00:43:07.973Z,0.00
2022-12-31T00:44:07.972Z,0.00
2022-12-31T00:45:07.952Z,0.00
2022-12-31T00:46:07.973Z,0.00
2022-12-31T00:47:07.917Z,0.00
2022-12-31T00:48:07.916Z,0.00
2022-12-31T00:49:07.909Z,0.00
2022-12-31T00:50:07.879Z,0.00
2022-12-31T00:51:07.866Z,0.00
2022-12-31T00:52:07.858Z,0.00
2022-12-31T00:53:07.855Z,0.00
2022-12-31T00:54:07.849Z,0.00
2022-12-31T00:55:07.824Z,0.00
2022-12-31T00:56:07.810Z,0.00
2022-12-31T00:57:07.803Z,0.00
2022-12-31T00:58:07.793Z,0.00
2022-12-31T00:59:07.783Z,0.00
2022-12-31T01:00:07.794Z,0.00
2022-12-31T01:01:07.893Z,0.00
2022-12-31T01:02:07.912Z,0.00
2022-12-31T01:03:07.837Z,0.00
2022-12-31T01:04:07.738Z,0.00
2022-12-31T01:05:07.726Z,0.00
2022-12-31T01:06:07.701Z,0.00
2022-12-31T01:07:07.692Z,0.00
2022-12-31T01:08:07.677Z,0.00
2022-12-31T01:09:07.673Z,0.00
2022-12-31T01:10:07.674Z,0.00
2022-12-31T01:11:07.650Z,0.00
2022-12-31T01:12:07.639Z,0.00
2022-12-31T01:13:07.620Z,0.00
2022-12-31T01:14:07.612Z,0.00
2022-12-31T01:15:07.630Z,0.00
2022-12-31T01:16:07.629Z,0.00
2022-12-31T01:17:07.611Z,0.00
2022-12-31T01:18:07.563Z,0.00
2022-12-31T01:19:07.579Z,0.00
2022-12-31T01:20:07.556Z,0.00
2022-12-31T01:21:07.571Z,0.00
2022-12-31T01:22:07.523Z,0.00
2022-12-31T01:23:07.542Z,0.00
2022-12-31T01:24:07.507Z,0.00
2022-12-31T01:25:07.534Z,0.00
2022-12-31T01:26:07.479Z,0.00
2022-12-31T01:27:07.595Z,0.00
2022-12-31T01:28:07.460Z,0.00
2022-12-31T01:29:07.534Z,0.00
2022-12-31T01:30:07.454Z,0.00
2022-12-31T01:31:07.604Z,0.00
2022-12-31T01:32:07.409Z,0.00
2022-12-31T01:33:07.456Z,0.00
2022-12-31T01:34:07.402Z,0.00
2022-12-31T01:35:07.448Z,0.00
2022-12-31T01:36:07.372Z,0.00
2022-12-31T01:37:07.356Z,0.00
2022-12-31T01:38:07.342Z,0.00
2022-12-31T01:39:07.332Z,0.00
2022-12-31T01:40:07.336Z,0.00
2022-12-31T01:41:07.310Z,0.00
2022-12-31T01:42:07.303Z,0.00
2022-12-31T01:43:07.294Z,0.00
2022-12-31T01:44:07.273Z,0.00
2022-12-31T01:45:07.297Z,0.00
2022-12-31T01:46:07.278Z,0.00
2022-12-31T01:47:07.246Z,0.00
2022-12-31T01:48:07.235Z,0.00
2022-12-31T01:49:07.228Z,0.00
2022-12-31T01:50:07.217Z,0.00
2022-12-31T01:51:07.188Z,0.00
2022-12-31T01:52:07.201Z,0.00
2022-12-31T01:53:07.182Z,0.00
2022-12-31T01:54:07.163Z,0.00
2022-12-31T01:55:07.163Z,0.00
2022-12-31T01:56:07.138Z,0.00
2022-12-31T01:57:07.138Z,0.00
2022-12-31T01:58:07.120Z,0.00
2022-12-31T01:59:07.115Z,0.00
2022-12-31T02:00:07.122Z,0.00
2022-12-31T02:01:07.104Z,0.00
2022-12-31T02:02:07.196Z,0.00
2022-12-31T02:03:07.158Z,0.00
2022-12-31T02:04:07.062Z,0.00
2022-12-31T02:05:07.067Z,0.00
2022-12-31T02:06:07.033Z,0.00
2022-12-31T02:07:07.070Z,0.00
2022-12-31T02:08:07.005Z,0.00
2022-12-31T02:09:06.998Z,0.00
2022-12-31T02:10:07.005Z,0.00
2022-12-31T02:11:06.982Z,0.00
2022-12-31T02:12:06.967Z,0.00
2022-12-31T02:13:06.963Z,0.00
2022-12-31T02:14:06.944Z,0.00
2022-12-31T02:15:06.950Z,0.00
2022-12-31T02:16:06.996Z,0.00
2022-12-31T02:17:06.916Z,0.00
2022-12-31T02:18:06.919Z,0.00
2022-12-31T02:19:06.888Z,0.00
2022-12-31T02:20:06.904Z,0.00
2022-12-31T02:21:06.908Z,0.00
2022-12-31T02:22:06.860Z,0.00
2022-12-31T02:23:06.858Z,0.00
2022-12-31T02:24:06.836Z,0.00
2022-12-31T02:25:06.837Z,0.00
2022-12-31T02:26:06.806Z,0.00
2022-12-31T02:27:06.800Z,0.00
2022-12-31T02:28:06.804Z,0.00
2022-12-31T02:29:06.778Z,0.00
2022-12-31T02:30:06.815Z,0.00
2022-12-31T02:31:06.838Z,0.00
2022-12-31T02:32:06.754Z,0.00
2022-12-31T02:33:06.732Z,0.00
2022-12-31T02:34:06.727Z,0.00
2022-12-31T02:35:06.728Z,0.00
2022-12-31T02:36:06.707Z,0.00
2022-12-31T02:37:06.693Z,0.00
2022-12-31T02:38:06.808Z,0.00
2022-12-31T02:39:06.672Z,0.00
2022-12-31T02:40:06.692Z,0.00
2022-12-31T02:41:06.657Z,0.00
2022-12-31T02:42:06.649Z,0.00
2022-12-31T02:43:06.672Z,0.00
2022-12-31T02:44:06.618Z,0.00
2022-12-31T02:45:06.634Z,0.00
2022-12-31T02:46:06.637Z,0.00
2022-12-31T02:47:06.586Z,0.00
2022-12-31T02:48:06.573Z,0.00
2022-12-31T02:49:07.405Z,0.00
2022-12-31T02:50:06.569Z,0.00
2022-12-31T02:51:06.537Z,0.00
2022-12-31T02:52:06.532Z,0.00
2022-12-31T02:53:06.526Z,0.00
2022-12-31T02:54:06.505Z,0.00
2022-12-31T02:55:06.512Z,0.00
2022-12-31T02:56:06.490Z,0.00
2022-12-31T02:57:06.486Z,0.00
2022-12-31T02:58:06.476Z,0.00
2022-12-31T02:59:06.456Z,0.00
2022-12-31T03:00:06.457Z,0.00
2022-12-31T03:01:06.532Z,0.00
2022-12-31T03:02:06.507Z,0.00
2022-12-31T03:03:06.411Z,0.00
2022-12-31T03:04:06.398Z,0.00
2022-12-31T03:05:06.400Z,0.00
2022-12-31T03:06:06.384Z,0.00
2022-12-31T03:07:06.390Z,0.00
2022-12-31T03:08:06.356Z,0.00
2022-12-31T03:09:06.352Z,0.00
2022-12-31T03:10:06.378Z,0.00
2022-12-31T03:11:06.324Z,0.00
2022-12-31T03:12:06.310Z,0.00
2022-12-31T03:13:06.305Z,0.00
2022-12-31T03:14:06.315Z,0.00
2022-12-31T03:15:06.277Z,0.00
2022-12-31T03:16:06.329Z,0.00
2022-12-31T03:17:06.259Z,0.00
2022-12-31T03:18:06.256Z,0.00
2022-12-31T03:19:06.236Z,0.00
2022-12-31T03:20:06.239Z,0.00
2022-12-31T03:21:06.237Z,0.00
2022-12-31T03:22:06.203Z,0.00
2022-12-31T03:23:06.191Z,0.00
2022-12-31T03:24:06.176Z,0.00
2022-12-31T03:25:06.165Z,0.00
2022-12-31T03:26:06.179Z,0.00
2022-12-31T03:27:06.153Z,0.00
2022-12-31T03:28:06.143Z,0.00
2022-12-31T03:29:06.121Z,0.00
2022-12-31T03:30:06.116Z,0.00
2022-12-31T03:31:06.171Z,0.00
2022-12-31T03:32:06.091Z,0.00
2022-12-31T03:33:06.086Z,0.00
2022-12-31T03:34:06.070Z,0.00
2022-12-31T03:35:06.063Z,0.00
2022-12-31T03:36:06.076Z,0.00
2022-12-31T03:37:06.055Z,0.00
2022-12-31T03:38:06.022Z,0.00
2022-12-31T03:39:06.031Z,0.00
2022-12-31T03:40:06.010Z,0.00
2022-12-31T03:41:06.017Z,0.00
2022-12-31T03:42:05.991Z,0.00
2022-12-31T03:43:05.973Z,0.00
2022-12-31T03:44:05.967Z,0.00
2022-12-31T03:45:05.975Z,0.00
2022-12-31T03:46:06.018Z,0.00
2022-12-31T03:47:05.944Z,0.00
2022-12-31T03:48:05.928Z,0.00
2022-12-31T03:49:05.916Z,0.00
2022-12-31T03:50:05.898Z,0.00
2022-12-31T03:51:05.916Z,0.00
2022-12-31T03:52:05.879Z,0.00
2022-12-31T03:53:05.886Z,0.00
2022-12-31T03:54:05.867Z,0.00
2022-12-31T03:55:05.845Z,0.00
2022-12-31T03:56:05.852Z,0.00
2022-12-31T03:57:05.829Z,0.00
2022-12-31T03:58:05.817Z,0.00
2022-12-31T03:59:05.804Z,0.00
2022-12-31T04:00:05.793Z,0.00
2022-12-31T04:01:05.908Z,0.00
2022-12-31T04:02:05.883Z,0.00
2022-12-31T04:03:05.828Z,0.00
2022-12-31T04:04:05.745Z,0.00
2022-12-31T04:05:05.737Z,0.00
2022-12-31T04:06:05.739Z,0.00
2022-12-31T04:07:05.718Z,0.00
2022-12-31T04:08:05.707Z,0.00
2022-12-31T04:09:05.699Z,0.00
2022-12-31T04:10:05.677Z,0.00
2022-12-31T04:11:05.689Z,0.00
2022-12-31T04:12:05.659Z,0.00
2022-12-31T04:13:05.649Z,0.00
2022-12-31T04:14:05.639Z,0.00
2022-12-31T04:15:05.628Z,0.00
2022-12-31T04:16:05.698Z,0.00
2022-12-31T04:17:05.611Z,0.00
2022-12-31T04:18:05.595Z,0.00
2022-12-31T04:19:05.588Z,0.00
2022-12-31T04:20:05.588Z,0.00
2022-12-31T04:21:05.594Z,0.00
2022-12-31T04:22:05.561Z,0.00
2022-12-31T04:23:05.548Z,0.00
2022-12-31T04:24:05.536Z,0.00
2022-12-31T04:25:05.521Z,0.00
2022-12-31T04:26:05.525Z,0.00
2022-12-31T04:27:07.841Z,0.00
2022-12-31T04:28:05.481Z,0.00
2022-12-31T04:29:05.480Z,0.00
2022-12-31T04:30:05.470Z,0.00
2022-12-31T04:31:05.479Z,0.00
2022-12-31T04:32:05.508Z,0.00
2022-12-31T04:33:05.431Z,0.00
2022-12-31T04:34:05.414Z,0.00
2022-12-31T04:35:05.415Z,0.00
2022-12-31T04:36:05.414Z,0.00
2022-12-31T04:37:05.389Z,0.00
2022-12-31T04:38:05.374Z,0.00
2022-12-31T04:39:05.375Z,0.00
2022-12-31T04:40:06.566Z,0.00
2022-12-31T04:41:05.352Z,0.00
2022-12-31T04:42:05.344Z,0.00
2022-12-31T04:43:05.322Z,0.00
2022-12-31T04:44:05.306Z,0.00
2022-12-31T04:45:05.294Z,0.00
2022-12-31T04:46:05.324Z,0.00
2022-12-31T04:47:05.292Z,0.00
2022-12-31T04:48:05.270Z,0.00
2022-12-31T04:49:05.255Z,0.00
2022-12-31T04:50:05.250Z,0.00
2022-12-31T04:51:05.245Z,0.00
2022-12-31T04:52:05.227Z,0.00
2022-12-31T04:53:05.215Z,0.00
2022-12-31T04:54:05.205Z,0.00
2022-12-31T04:55:05.193Z,0.00
2022-12-31T04:56:05.190Z,0.00
2022-12-31T04:57:05.165Z,0.00
2022-12-31T04:58:05.155Z,0.00
2022-12-31T04:59:05.165Z,0.00
2022-12-31T05:00:05.133Z,0.00
2022-12-31T05:01:05.339Z,0.00
2022-12-31T05:02:05.336Z,0.00
2022-12-31T05:03:05.142Z,0.00
2022-12-31T05:04:05.095Z,0.00
2022-12-31T05:05:05.081Z,0.00
2022-12-31T05:06:05.092Z,0.00
2022-12-31T05:07:05.068Z,0.00
2022-12-31T05:08:05.055Z,0.00
2022-12-31T05:09:05.047Z,0.00
2022-12-31T05:10:05.027Z,0.00
2022-12-31T05:11:05.039Z,0.00
2022-12-31T05:12:05.016Z,0.00
2022-12-31T05:13:05.004Z,0.00
2022-12-31T05:14:04.991Z,0.00
2022-12-31T05:15:04.975Z,0.00
2022-12-31T05:16:04.982Z,0.00
2022-12-31T05:17:05.005Z,0.00
2022-12-31T05:18:04.942Z,0.00
2022-12-31T05:19:04.933Z,0.00
2022-12-31T05:20:04.917Z,0.00
2022-12-31T05:21:04.929Z,0.00
2022-12-31T05:22:04.905Z,0.00
2022-12-31T05:23:04.894Z,0.00
2022-12-31T05:24:04.888Z,0.00
2022-12-31T05:25:04.878Z,0.00
2022-12-31T05:26:04.880Z,0.00
2022-12-31T05:27:04.850Z,0.00
2022-12-31T05:28:04.851Z,0.00
2022-12-31T05:29:04.825Z,0.00
2022-12-31T05:30:04.813Z,0.00
2022-12-31T05:31:04.862Z,0.00
2022-12-31T05:32:04.791Z,0.00
2022-12-31T05:33:04.785Z,0.00
2022-12-31T05:34:04.767Z,0.00
2022-12-31T05:35:04.752Z,0.00
2022-12-31T05:36:04.780Z,0.00
2022-12-31T05:37:04.737Z,0.00
2022-12-31T05:38:04.718Z,0.00
2022-12-31T05:39:04.727Z,0.00
2022-12-31T05:40:04.705Z,0.00
2022-12-31T05:41:04.710Z,0.00
2022-12-31T05:42:04.692Z,0.00
2022-12-31T05:43:04.676Z,0.00
2022-12-31T05:44:04.656Z,0.00
2022-12-31T05:45:04.653Z,0.00
2022-12-31T05:46:04.742Z,0.00
2022-12-31T05:47:04.628Z,0.00
2022-12-31T05:48:04.623Z,0.00
2022-12-31T05:49:04.606Z,0.00
2022-12-31T05:50:04.597Z,0.00
2022-12-31T05:51:04.613Z,0.00
2022-12-31T05:52:04.566Z,0.00
2022-12-31T05:53:04.565Z,0.00
2022-12-31T05:54:04.553Z,0.00
2022-12-31T05:55:04.538Z,0.00
2022-12-31T05:56:04.554Z,0.00
2022-12-31T05:57:04.520Z,0.00
2022-12-31T05:58:04.509Z,0.00
2022-12-31T05:59:04.494Z,0.00
2022-12-31T06:00:04.490Z,0.00
2022-12-31T06:01:04.499Z,0.00
2022-12-31T06:02:04.500Z,0.00
2022-12-31T06:03:04.637Z,0.00
2022-12-31T06:04:04.555Z,0.00
2022-12-31T06:05:04.443Z,0.00
2022-12-31T06:06:04.414Z,0.00
2022-12-31T06:07:04.431Z,0.00
2022-12-31T06:08:04.400Z,0.00
2022-12-31T06:09:04.400Z,0.00
2022-12-31T06:10:04.388Z,0.00
2022-12-31T06:11:04.368Z,0.00
2022-12-31T06:12:04.379Z,0.00
2022-12-31T06:13:04.347Z,0.00
2022-12-31T06:14:04.332Z,0.00
2022-12-31T06:15:04.342Z,0.00
2022-12-31T06:16:04.338Z,0.00
2022-12-31T06:17:04.323Z,0.00
2022-12-31T06:18:04.290Z,0.00
2022-12-31T06:19:04.287Z,0.00
2022-12-31T06:20:13.356Z,0.00
2022-12-31T06:21:04.254Z,0.00
2022-12-31T06:22:04.271Z,0.00
2022-12-31T06:23:04.246Z,0.00
2022-12-31T06:24:04.226Z,0.00
2022-12-31T06:25:04.221Z,0.00
2022-12-31T06:26:04.226Z,0.00
2022-12-31T06:27:04.225Z,0.00
2022-12-31T06:28:04.201Z,0.00
2022-12-31T06:29:04.175Z,0.00
2022-12-31T06:30:04.162Z,0.00
2022-12-31T06:31:04.204Z,0.00
2022-12-31T06:32:04.160Z,0.00
2022-12-31T06:33:04.132Z,0.00
2022-12-31T06:34:04.116Z,0.00
2022-12-31T06:35:04.110Z,0.00
2022-12-31T06:36:04.094Z,0.00
2022-12-31T06:37:04.116Z,0.00
2022-12-31T06:38:04.078Z,0.00
2022-12-31T06:39:04.092Z,0.00
2022-12-31T06:40:04.082Z,0.00
2022-12-31T06:41:04.051Z,0.00
2022-12-31T06:42:04.116Z,0.00
2022-12-31T06:43:04.016Z,0.00
2022-12-31T06:44:04.041Z,0.00
2022-12-31T06:45:03.995Z,0.00
2022-12-31T06:46:07.910Z,0.00
2022-12-31T06:47:04.007Z,0.00
2022-12-31T06:48:03.968Z,0.00
2022-12-31T06:49:03.963Z,0.00
2022-12-31T06:50:03.976Z,0.00
2022-12-31T06:51:03.941Z,0.00
2022-12-31T06:52:03.937Z,0.00
2022-12-31T06:53:03.912Z,0.00
2022-12-31T06:54:03.907Z,0.00
2022-12-31T06:55:03.929Z,0.00
2022-12-31T06:56:03.886Z,0.00
2022-12-31T06:57:03.892Z,0.00
2022-12-31T06:58:03.864Z,0.00
2022-12-31T06:59:03.891Z,0.00
2022-12-31T07:00:03.842Z,0.00
2022-12-31T07:01:03.913Z,0.00
2022-12-31T07:02:03.887Z,0.00
2022-12-31T07:03:03.848Z,0.00
2022-12-31T07:04:03.796Z,0.00
2022-12-31T07:05:03.802Z,0.00
2022-12-31T07:06:03.810Z,0.00
2022-12-31T07:07:03.787Z,0.00
2022-12-31T07:08:03.756Z,0.00
2022-12-31T07:09:03.764Z,0.00
2022-12-31T07:10:03.731Z,0.00
2022-12-31T07:11:03.725Z,0.00
2022-12-31T07:12:03.742Z,0.00
2022-12-31T07:13:03.720Z,0.00
2022-12-31T07:14:03.700Z,0.00
2022-12-31T07:15:03.680Z,0.00
2022-12-31T07:16:03.707Z,0.00
2022-12-31T07:17:03.713Z,0.00
2022-12-31T07:18:03.638Z,0.00
2022-12-31T07:19:03.623Z,0.00
2022-12-31T07:20:03.619Z,4.00
2022-12-31T07:21:03.620Z,4.00
2022-12-31T07:22:03.612Z,4.00
2022-12-31T07:23:03.593Z,0.00
2022-12-31T07:24:03.621Z,4.00
2022-12-31T07:25:03.574Z,8.00
2022-12-31T07:26:03.566Z,8.00
2022-12-31T07:27:03.582Z,8.00
2022-12-31T07:28:03.532Z,12.00
2022-12-31T07:29:03.555Z,8.00
2022-12-31T07:30:03.514Z,12.00
2022-12-31T07:31:03.541Z,12.00
2022-12-31T07:32:03.534Z,12.00
2022-12-31T07:33:03.484Z,12.00
2022-12-31T07:34:03.468Z,12.00
2022-12-31T07:35:03.452Z,20.00
2022-12-31T07:36:03.452Z,24.00
2022-12-31T07:37:03.484Z,28.00
2022-12-31T07:38:03.433Z,28.00
2022-12-31T07:39:03.419Z,32.00
2022-12-31T07:40:03.417Z,32.00
2022-12-31T07:41:09.394Z,40.00
2022-12-31T07:42:03.414Z,40.00
2022-12-31T07:43:03.441Z,40.00
2022-12-31T07:44:03.360Z,44.00
2022-12-31T07:45:03.356Z,52.00
2022-12-31T07:46:03.354Z,52.00
2022-12-31T07:47:03.347Z,52.00
2022-12-31T07:48:03.375Z,60.00
2022-12-31T07:49:03.307Z,64.00
2022-12-31T07:50:03.282Z,76.00
2022-12-31T07:51:03.347Z,80.00
2022-12-31T07:52:03.297Z,84.00
2022-12-31T07:53:03.255Z,84.00
2022-12-31T07:54:06.375Z,96.00
2022-12-31T07:55:03.239Z,96.00
2022-12-31T07:56:03.231Z,96.00
2022-12-31T07:57:03.309Z,100.00
2022-12-31T07:58:03.208Z,88.00
2022-12-31T07:59:03.217Z,76.00
2022-12-31T08:00:03.190Z,72.00
2022-12-31T08:01:03.407Z,76.00
2022-12-31T08:02:03.324Z,88.00
2022-12-31T08:03:03.169Z,100.00
2022-12-31T08:04:03.140Z,100.00
2022-12-31T08:05:03.148Z,100.00
2022-12-31T08:06:03.136Z,112.00
2022-12-31T08:07:03.143Z,136.00
2022-12-31T08:08:03.101Z,156.00
2022-12-31T08:09:03.088Z,180.00
2022-12-31T08:10:03.075Z,216.00
2022-12-31T08:11:03.075Z,220.00
2022-12-31T08:12:03.074Z,208.00
2022-12-31T08:13:03.049Z,200.00
2022-12-31T08:14:03.031Z,200.00
2022-12-31T08:15:03.032Z,200.00
2022-12-31T08:16:03.067Z,220.00
2022-12-31T08:17:03.013Z,244.00
2022-12-31T08:18:02.990Z,260.00
2022-12-31T08:19:02.985Z,252.00
2022-12-31T08:20:03.009Z,224.00
2022-12-31T08:21:02.970Z,268.00
2022-12-31T08:22:02.971Z,312.00
2022-12-31T08:23:02.930Z,296.00
2022-12-31T08:24:02.940Z,296.00
2022-12-31T08:25:02.929Z,292.00
2022-12-31T08:26:02.928Z,304.00
2022-12-31T08:27:02.917Z,340.00
2022-12-31T08:28:02.888Z,384.00
2022-12-31T08:29:02.898Z,408.00
2022-12-31T08:30:02.876Z,460.00
2022-12-31T08:31:02.847Z,536.00
2022-12-31T08:32:02.907Z,488.00
2022-12-31T08:33:02.823Z,576.00
2022-12-31T08:34:06.001Z,696.00
2022-12-31T08:35:02.820Z,768.00
2022-12-31T08:36:02.796Z,760.00
2022-12-31T08:37:02.796Z,752.00
2022-12-31T08:38:02.786Z,696.00
2022-12-31T08:39:02.794Z,564.00
2022-12-31T08:40:02.753Z,512.00
2022-12-31T08:41:02.756Z,496.00
2022-12-31T08:42:02.743Z,532.00
2022-12-31T08:43:02.752Z,692.00
2022-12-31T08:44:02.715Z,712.00
2022-12-31T08:45:02.709Z,632.00
2022-12-31T08:46:02.753Z,576.00
2022-12-31T08:47:02.707Z,496.00
2022-12-31T08:48:02.716Z,480.00
2022-12-31T08:49:02.669Z,432.00
2022-12-31T08:50:02.688Z,408.00
2022-12-31T08:51:02.652Z,436.00
2022-12-31T08:52:02.674Z,464.00
2022-12-31T08:53:02.605Z,524.00
2022-12-31T08:54:02.601Z,616.00
2022-12-31T08:55:02.635Z,796.00
2022-12-31T08:56:02.576Z,944.00
2022-12-31T08:57:02.586Z,1024.00
2022-12-31T08:58:02.574Z,1068.00
2022-12-31T08:59:02.558Z,1112.00
2022-12-31T09:00:02.532Z,1140.00
2022-12-31T09:01:02.607Z,1072.00
2022-12-31T09:02:02.687Z,1088.00
2022-12-31T09:03:02.551Z,1064.00
2022-12-31T09:04:02.510Z,1068.00
2022-12-31T09:05:02.486Z,964.00
2022-12-31T09:06:02.499Z,1020.00
2022-12-31T09:07:02.468Z,976.00
2022-12-31T09:08:02.448Z,976.00
2022-12-31T09:09:02.440Z,1096.00
2022-12-31T09:10:02.429Z,1216.00
2022-12-31T09:11:02.413Z,1172.00
2022-12-31T09:12:02.420Z,1424.00
2022-12-31T09:13:02.449Z,1712.00
2022-12-31T09:14:02.379Z,1772.00
2022-12-31T09:15:02.371Z,1724.00
2022-12-31T09:16:02.369Z,1516.00
2022-12-31T09:17:02.380Z,1476.00
2022-12-31T09:18:02.354Z,1444.00
2022-12-31T09:19:02.333Z,1492.00
2022-12-31T09:20:02.345Z,1332.00
2022-12-31T09:21:02.319Z,1352.00
2022-12-31T09:22:02.337Z,1352.00
2022-12-31T09:23:02.293Z,1360.00
2022-12-31T09:24:08.979Z,1484.00
2022-12-31T09:25:02.269Z,1620.00
2022-12-31T09:26:02.266Z,1780.00
2022-12-31T09:27:02.253Z,1648.00
2022-12-31T09:28:02.243Z,1500.00
2022-12-31T09:29:02.216Z,1552.00
2022-12-31T09:30:02.220Z,1440.00
2022-12-31T09:31:02.218Z,1372.00
2022-12-31T09:32:02.290Z,1308.00
2022-12-31T09:33:02.172Z,1032.00
2022-12-31T09:34:02.162Z,960.00
2022-12-31T09:35:02.153Z,924.00
2022-12-31T09:36:02.181Z,1088.00
2022-12-31T09:37:02.139Z,1056.00
2022-12-31T09:38:06.475Z,1024.00
2022-12-31T09:39:02.105Z,1008.00
2022-12-31T09:40:02.100Z,916.00
2022-12-31T09:41:02.092Z,736.00
2022-12-31T09:42:02.081Z,680.00
2022-12-31T09:43:02.125Z,640.00
2022-12-31T09:44:02.056Z,624.00
2022-12-31T09:45:02.153Z,512.00
2022-12-31T09:46:02.117Z,420.00
2022-12-31T09:47:02.059Z,488.00
2022-12-31T09:48:02.063Z,660.00
2022-12-31T09:49:01.999Z,644.00
2022-12-31T09:50:02.004Z,600.00
2022-12-31T09:51:01.969Z,668.00
2022-12-31T09:52:01.955Z,692.00
2022-12-31T09:53:04.104Z,676.00
2022-12-31T09:54:07.610Z,636.00
2022-12-31T09:55:01.928Z,604.00
2022-12-31T09:56:01.934Z,588.00
2022-12-31T09:57:01.904Z,552.00
2022-12-31T09:58:01.944Z,524.00
2022-12-31T09:59:01.906Z,524.00
2022-12-31T10:00:01.882Z,568.00
2022-12-31T10:01:02.151Z,588.00
2022-12-31T10:02:02.025Z,624.00
2022-12-31T10:03:01.962Z,604.00
2022-12-31T10:04:01.836Z,620.00
2022-12-31T10:05:01.822Z,616.00
2022-12-31T10:06:01.810Z,672.00
2022-12-31T10:07:01.847Z,680.00
2022-12-31T10:08:01.820Z,620.00
2022-12-31T10:09:01.773Z,732.00
2022-12-31T10:10:01.793Z,744.00
2022-12-31T10:11:01.760Z,628.00
2022-12-31T10:12:01.744Z,556.00
2022-12-31T10:13:01.773Z,520.00
2022-12-31T10:14:01.723Z,488.00
2022-12-31T10:15:01.715Z,468.00
2022-12-31T10:16:01.734Z,404.00
2022-12-31T10:17:01.809Z,400.00
2022-12-31T10:18:01.695Z,428.00
2022-12-31T10:19:01.687Z,448.00
2022-12-31T10:20:01.651Z,672.00
2022-12-31T10:21:01.637Z,824.00
2022-12-31T10:22:01.635Z,888.00
2022-12-31T10:23:01.661Z,876.00
2022-12-31T10:24:01.625Z,976.00
2022-12-31T10:25:01.621Z,940.00
2022-12-31T10:26:01.605Z,920.00
2022-12-31T10:27:01.576Z,944.00
2022-12-31T10:28:01.599Z,824.00
2022-12-31T10:29:01.562Z,896.00
2022-12-31T10:30:01.551Z,784.00
2022-12-31T10:31:01.578Z,728.00
2022-12-31T10:32:01.519Z,736.00
2022-12-31T10:33:01.529Z,764.00
2022-12-31T10:34:01.521Z,812.00
2022-12-31T10:35:01.498Z,916.00
2022-12-31T10:36:01.485Z,856.00
2022-12-31T10:37:01.467Z,756.00
2022-12-31T10:38:01.484Z,792.00
2022-12-31T10:39:01.459Z,796.00
2022-12-31T10:40:01.470Z,796.00
2022-12-31T10:41:01.434Z,796.00
2022-12-31T10:42:01.422Z,892.00
2022-12-31T10:43:01.461Z,784.00
2022-12-31T10:44:01.397Z,628.00
2022-12-31T10:45:01.384Z,568.00
2022-12-31T10:46:01.413Z,568.00
2022-12-31T10:47:01.358Z,548.00
2022-12-31T10:48:01.369Z,536.00
2022-12-31T10:49:01.350Z,544.00
2022-12-31T10:50:01.322Z,520.00
2022-12-31T10:51:01.317Z,480.00
2022-12-31T10:52:01.305Z,480.00
2022-12-31T10:53:01.363Z,504.00
2022-12-31T10:54:01.273Z,476.00
2022-12-31T10:55:01.276Z,496.00
2022-12-31T10:56:01.263Z,520.00
2022-12-31T10:57:01.284Z,548.00
2022-12-31T10:58:04.320Z,516.00
2022-12-31T10:59:01.240Z,580.00
2022-12-31T11:00:01.228Z,552.00
2022-12-31T11:01:01.325Z,560.00
2022-12-31T11:02:01.299Z,540.00
2022-12-31T11:03:01.338Z,528.00
2022-12-31T11:04:01.190Z,548.00
2022-12-31T11:05:01.185Z,572.00
2022-12-31T11:06:01.155Z,576.00
2022-12-31T11:07:01.151Z,532.00
2022-12-31T11:08:01.142Z,484.00
2022-12-31T11:09:01.116Z,520.00
2022-12-31T11:10:01.106Z,508.00
2022-12-31T11:11:01.102Z,576.00
2022-12-31T11:12:01.089Z,584.00
2022-12-31T11:13:01.108Z,652.00
2022-12-31T11:14:01.093Z,808.00
2022-12-31T11:15:01.052Z,836.00
2022-12-31T11:16:01.063Z,848.00
2022-12-31T11:17:01.063Z,732.00
2022-12-31T11:18:01.054Z,800.00
2022-12-31T11:19:01.006Z,848.00
2022-12-31T11:20:00.999Z,724.00
2022-12-31T11:21:01.003Z,904.00
2022-12-31T11:22:01.002Z,900.00
2022-12-31T11:23:00.978Z,1184.00
2022-12-31T11:24:01.013Z,1192.00
2022-12-31T11:25:00.941Z,1232.00
2022-12-31T11:26:00.946Z,1352.00
2022-12-31T11:27:00.923Z,1352.00
2022-12-31T11:28:00.941Z,1496.00
2022-12-31T11:29:00.925Z,1608.00
2022-12-31T11:30:00.903Z,1684.00
2022-12-31T11:31:00.915Z,1732.00
2022-12-31T11:32:00.884Z,1752.00
2022-12-31T11:33:00.890Z,1464.00
2022-12-31T11:34:00.862Z,1556.00
2022-12-31T11:35:00.848Z,1448.00
2022-12-31T11:36:00.868Z,1436.00
2022-12-31T11:37:00.819Z,1580.00
2022-12-31T11:38:01.060Z,1708.00
2022-12-31T11:39:00.814Z,1788.00
2022-12-31T11:40:00.812Z,1796.00
2022-12-31T11:41:00.776Z,1680.00
2022-12-31T11:42:00.752Z,1712.00
2022-12-31T11:43:00.790Z,1972.00
2022-12-31T11:44:00.740Z,1964.00
2022-12-31T11:45:00.745Z,1920.00
2022-12-31T11:46:01.046Z,1860.00
2022-12-31T11:47:00.719Z,1792.00
2022-12-31T11:49:00.700Z,1600.00
2022-12-31T11:50:00.736Z,1820.00
2022-12-31T11:51:00.679Z,1808.00
2022-12-31T11:52:00.654Z,2288.00
2022-12-31T11:53:00.654Z,2028.00
2022-12-31T11:54:00.629Z,1984.00
2022-12-31T11:55:00.627Z,2276.00
2022-12-31T11:56:00.623Z,2464.00
2022-12-31T11:57:00.605Z,2312.00
2022-12-31T11:58:00.596Z,2340.00
2022-12-31T11:59:04.752Z,2452.00
2022-12-31T12:00:00.571Z,2148.00
2022-12-31T12:01:00.577Z,1784.00
2022-12-31T12:02:00.577Z,2076.00
2022-12-31T12:03:00.626Z,1952.00
2022-12-31T12:04:00.552Z,1960.00
2022-12-31T12:05:03.823Z,1864.00
2022-12-31T12:06:00.489Z,1628.00
2022-12-31T12:07:00.481Z,1864.00
2022-12-31T12:08:00.473Z,1564.00
2022-12-31T12:09:00.464Z,1352.00
2022-12-31T12:10:00.449Z,1264.00
2022-12-31T12:11:00.444Z,996.00
2022-12-31T12:12:00.451Z,912.00
2022-12-31T12:13:00.467Z,948.00
2022-12-31T12:14:00.464Z,804.00
2022-12-31T12:15:00.385Z,680.00
2022-12-31T12:16:00.519Z,952.00
2022-12-31T12:17:04.855Z,1124.00
2022-12-31T12:18:00.381Z,1380.00
2022-12-31T12:19:00.353Z,1596.00
2022-12-31T12:20:00.339Z,1532.00
2022-12-31T12:21:06.885Z,2080.00
2022-12-31T12:22:00.311Z,2080.00
2022-12-31T12:23:00.323Z,2172.00
2022-12-31T12:24:00.289Z,2384.00
2022-12-31T12:25:00.278Z,1628.00
2022-12-31T12:26:00.266Z,1504.00
2022-12-31T12:27:00.255Z,1864.00
2022-12-31T12:28:00.265Z,1580.00
2022-12-31T12:29:00.236Z,1636.00
2022-12-31T12:30:00.243Z,1604.00
2022-12-31T12:31:00.304Z,1868.00
2022-12-31T12:32:00.207Z,1840.00
2022-12-31T12:33:00.210Z,2224.00
2022-12-31T12:34:00.193Z,2460.00
2022-12-31T12:35:00.184Z,2316.00
2022-12-31T12:36:00.174Z,1928.00
2022-12-31T12:37:00.158Z,2000.00
2022-12-31T12:38:00.140Z,2096.00
2022-12-31T12:39:00.159Z,1844.00
2022-12-31T12:40:00.161Z,2432.00
2022-12-31T12:41:00.125Z,2936.00
2022-12-31T12:42:00.106Z,2968.00
2022-12-31T12:43:00.139Z,2568.00
2022-12-31T12:44:00.077Z,2668.00
2022-12-31T12:45:00.054Z,1940.00
2022-12-31T12:46:00.055Z,1488.00
2022-12-31T12:47:00.114Z,1196.00
2022-12-31T12:48:00.083Z,1152.00
2022-12-31T12:49:00.023Z,1280.00
2022-12-31T12:50:00.027Z,1472.00
2022-12-31T12:51:00.014Z,1676.00
2022-12-31T12:51:59.992Z,1320.00
2022-12-31T12:52:59.990Z,1248.00
2022-12-31T12:53:59.972Z,1408.00